createdAt,value
2023-04-06T00:00:33.967Z,66.14
2023-04-06T00:01:34.765Z,65.72
2023-04-06T00:02:34.413Z,65.69
2023-04-06T00:03:34.892Z,65.80
2023-04-06T00:04:34.598Z,65.28
2023-04-06T00:05:34.781Z,65.38
2023-04-06T00:06:35.767Z,65.17
2023-04-06T00:07:35.168Z,65.28
2023-04-06T00:08:35.367Z,65.28
2023-04-06T00:09:35.483Z,65.17
2023-04-06T00:10:35.645Z,65.17
2023-04-06T00:11:35.801Z,65.17
2023-04-06T00:12:35.962Z,65.28
2023-04-06T00:13:36.139Z,64.58
2023-04-06T00:14:36.303Z,64.65
2023-04-06T00:15:37.731Z,64.76
2023-04-06T00:16:36.637Z,64.65
2023-04-06T00:17:37.286Z,64.14
2023-04-06T00:18:36.932Z,64.24
2023-04-06T00:19:37.102Z,64.03
2023-04-06T00:20:37.267Z,64.24
2023-04-06T00:21:37.457Z,64.45
2023-04-06T00:22:37.657Z,64.14
2023-04-06T00:23:37.884Z,64.14
2023-04-06T00:24:38.052Z,64.45
2023-04-06T00:25:38.233Z,64.45
2023-04-06T00:26:38.400Z,63.75
2023-04-06T00:27:38.569Z,63.62
2023-04-06T00:28:39.729Z,63.51
2023-04-06T00:29:38.965Z,63.31
2023-04-06T00:30:39.735Z,63.31
2023-04-06T00:31:41.314Z,63.20
2023-04-06T00:32:39.614Z,62.68
2023-04-06T00:33:39.696Z,62.99
2023-04-06T00:34:40.748Z,62.89
2023-04-06T00:35:40.836Z,62.68
2023-04-06T00:36:40.364Z,62.79
2023-04-06T00:37:40.526Z,62.68
2023-04-06T00:38:40.783Z,62.48
2023-04-06T00:39:41.750Z,62.37
2023-04-06T00:40:41.142Z,62.48
2023-04-06T00:41:42.231Z,62.27
2023-04-06T00:42:42.258Z,62.27
2023-04-06T00:43:41.656Z,62.99
2023-04-06T00:44:42.783Z,62.48
2023-04-06T00:45:43.250Z,62.27
2023-04-06T00:46:42.264Z,62.58
2023-04-06T00:47:43.747Z,62.27
2023-04-06T00:48:43.110Z,62.27
2023-04-06T00:49:42.735Z,62.48
2023-04-06T00:50:42.883Z,62.58
2023-04-06T00:51:43.750Z,62.27
2023-04-06T00:52:44.249Z,62.68
2023-04-06T00:53:43.390Z,61.34
2023-04-06T00:54:43.559Z,62.27
2023-04-06T00:55:43.712Z,62.06
2023-04-06T00:56:43.882Z,62.16
2023-04-06T00:57:44.053Z,62.27
2023-04-06T00:58:44.199Z,62.27
2023-04-06T00:59:45.240Z,61.96
2023-04-06T01:00:45.289Z,61.41
2023-04-06T01:01:45.299Z,61.03
2023-04-06T01:02:45.645Z,61.55
2023-04-06T01:03:45.038Z,61.13
2023-04-06T01:04:46.236Z,61.96
2023-04-06T01:05:45.467Z,61.44
2023-04-06T01:06:45.555Z,62.27
2023-04-06T01:07:45.723Z,61.55
2023-04-06T01:08:45.914Z,61.55
2023-04-06T01:09:46.293Z,61.86
2023-04-06T01:10:46.203Z,61.55
2023-04-06T01:11:46.344Z,62.37
2023-04-06T01:12:46.510Z,61.76
2023-04-06T01:13:46.660Z,61.55
2023-04-06T01:14:48.258Z,61.76
2023-04-06T01:15:47.042Z,61.96
2023-04-06T01:16:47.212Z,62.48
2023-04-06T01:17:48.125Z,61.76
2023-04-06T01:18:47.525Z,61.86
2023-04-06T01:19:47.678Z,61.86
2023-04-06T01:20:47.819Z,61.55
2023-04-06T01:21:47.953Z,61.13
2023-04-06T01:22:48.073Z,61.96
2023-04-06T01:23:49.747Z,62.48
2023-04-06T01:24:49.294Z,61.34
2023-04-06T01:25:49.276Z,61.76
2023-04-06T01:26:48.746Z,61.76
2023-04-06T01:27:48.914Z,61.13
2023-04-06T01:28:49.050Z,61.21
2023-04-06T01:29:49.199Z,61.34
2023-04-06T01:30:49.446Z,62.37
2023-04-06T01:31:50.553Z,61.86
2023-04-06T01:32:49.740Z,61.86
2023-04-06T01:33:49.782Z,61.34
2023-04-06T01:34:50.753Z,61.76
2023-04-06T01:35:50.142Z,61.44
2023-04-06T01:36:50.324Z,61.86
2023-04-06T01:37:51.244Z,61.34
2023-04-06T01:38:50.608Z,62.48
2023-04-06T01:39:50.737Z,61.86
2023-04-06T01:40:51.818Z,60.61
2023-04-06T01:41:51.059Z,61.13
2023-04-06T01:42:51.308Z,61.13
2023-04-06T01:43:52.252Z,60.51
2023-04-06T01:44:51.610Z,60.51
2023-04-06T01:45:53.638Z,61.10
2023-04-06T01:46:53.775Z,61.00
2023-04-06T01:47:52.228Z,61.44
2023-04-06T01:48:52.413Z,60.79
2023-04-06T01:49:53.254Z,61.13
2023-04-06T01:50:52.739Z,60.58
2023-04-06T01:51:53.813Z,60.61
2023-04-06T01:52:53.791Z,61.10
2023-04-06T01:53:53.193Z,60.69
2023-04-06T01:54:53.807Z,60.48
2023-04-06T01:55:53.585Z,61.24
2023-04-06T01:56:53.771Z,61.21
2023-04-06T01:57:53.955Z,61.13
2023-04-06T01:58:54.177Z,61.55
2023-04-06T01:59:54.286Z,61.55
2023-04-06T02:00:55.273Z,61.86
2023-04-06T02:01:55.279Z,62.48
2023-04-06T02:02:54.867Z,61.55
2023-04-06T02:03:55.792Z,61.55
2023-04-06T02:04:55.072Z,61.55
2023-04-06T02:05:55.270Z,61.55
2023-04-06T02:06:55.488Z,61.86
2023-04-06T02:07:56.296Z,61.76
2023-04-06T02:08:55.717Z,61.34
2023-04-06T02:09:55.884Z,61.24
2023-04-06T02:10:56.145Z,61.13
2023-04-06T02:11:56.340Z,61.44
2023-04-06T02:12:56.555Z,60.79
2023-04-06T02:13:57.624Z,61.31
2023-04-06T02:14:56.931Z,60.82
2023-04-06T02:15:57.150Z,60.69
2023-04-06T02:16:57.431Z,60.79
2023-04-06T02:17:57.578Z,60.41
2023-04-06T02:18:58.308Z,60.69
2023-04-06T02:19:57.846Z,60.72
2023-04-06T02:20:58.056Z,61.24
2023-04-06T02:21:58.241Z,61.24
2023-04-06T02:22:58.435Z,61.13
2023-04-06T02:23:58.637Z,61.24
2023-04-06T02:24:58.857Z,60.93
2023-04-06T02:25:59.802Z,61.44
2023-04-06T02:27:00.761Z,61.03
2023-04-06T02:28:00.261Z,61.24
2023-04-06T02:28:59.605Z,60.93
2023-04-06T02:30:00.341Z,61.44
2023-04-06T02:31:00.019Z,60.61
2023-04-06T02:32:00.310Z,61.24
2023-04-06T02:33:00.452Z,60.93
2023-04-06T02:34:00.809Z,60.72
2023-04-06T02:35:00.762Z,60.72
2023-04-06T02:36:01.843Z,60.89
2023-04-06T02:37:01.800Z,60.82
2023-04-06T02:38:01.350Z,60.72
2023-04-06T02:39:01.567Z,60.51
2023-04-06T02:40:02.266Z,60.51
2023-04-06T02:41:01.923Z,60.51
2023-04-06T02:42:03.130Z,61.13
2023-04-06T02:43:02.261Z,60.61
2023-04-06T02:44:02.437Z,60.51
2023-04-06T02:45:02.594Z,61.34
2023-04-06T02:46:02.881Z,61.13
2023-04-06T02:47:02.985Z,61.24
2023-04-06T02:48:03.283Z,61.03
2023-04-06T02:49:05.316Z,60.93
2023-04-06T02:50:03.480Z,61.03
2023-04-06T02:51:04.295Z,61.24
2023-04-06T02:52:04.776Z,61.76
2023-04-06T02:53:04.771Z,62.71
2023-04-06T02:54:04.771Z,61.78
2023-04-06T02:55:05.140Z,62.51
2023-04-06T02:56:05.297Z,62.61
2023-04-06T02:57:04.704Z,62.61
2023-04-06T02:58:06.266Z,63.26
2023-04-06T02:59:05.787Z,62.71
2023-04-06T03:00:06.766Z,62.43
2023-04-06T03:01:05.308Z,62.64
2023-04-06T03:02:05.470Z,62.54
2023-04-06T03:03:07.365Z,62.33
2023-04-06T03:04:05.794Z,62.33
2023-04-06T03:05:06.799Z,62.43
2023-04-06T03:06:06.800Z,62.46
2023-04-06T03:07:06.318Z,62.43
2023-04-06T03:08:06.491Z,62.43
2023-04-06T03:09:06.921Z,62.15
2023-04-06T03:10:06.856Z,62.33
2023-04-06T03:11:07.019Z,62.15
2023-04-06T03:12:09.261Z,62.26
2023-04-06T03:13:08.376Z,62.64
2023-04-06T03:14:07.553Z,62.54
2023-04-06T03:15:07.715Z,62.57
2023-04-06T03:16:07.964Z,62.67
2023-04-06T03:17:08.000Z,62.46
2023-04-06T03:18:08.207Z,62.95
2023-04-06T03:19:09.552Z,62.98
2023-04-06T03:20:10.274Z,62.67
2023-04-06T03:21:08.781Z,62.98
2023-04-06T03:22:08.937Z,62.46
2023-04-06T03:23:09.103Z,61.22
2023-04-06T03:24:09.412Z,61.63
2023-04-06T03:25:09.470Z,61.19
2023-04-06T03:26:11.266Z,61.40
2023-04-06T03:27:10.307Z,61.19
2023-04-06T03:28:09.959Z,61.11
2023-04-06T03:29:10.260Z,60.77
2023-04-06T03:30:10.256Z,60.98
2023-04-06T03:31:10.450Z,60.88
2023-04-06T03:32:11.142Z,60.77
2023-04-06T03:33:10.846Z,60.98
2023-04-06T03:34:11.018Z,60.15
2023-04-06T03:35:11.229Z,60.05
2023-04-06T03:36:11.404Z,60.25
2023-04-06T03:37:11.596Z,60.46
2023-04-06T03:38:11.769Z,60.36
2023-04-06T03:39:11.932Z,60.15
2023-04-06T03:40:12.137Z,60.15
2023-04-06T03:41:13.313Z,59.84
2023-04-06T03:42:12.576Z,60.15
2023-04-06T03:43:13.266Z,59.32
2023-04-06T03:44:14.769Z,59.22
2023-04-06T03:45:13.148Z,59.11
2023-04-06T03:46:13.380Z,59.11
2023-04-06T03:47:14.264Z,59.11
2023-04-06T03:48:14.268Z,59.40
2023-04-06T03:49:14.765Z,58.91
2023-04-06T03:50:14.767Z,58.70
2023-04-06T03:51:14.163Z,58.47
2023-04-06T03:52:14.330Z,59.01
2023-04-06T03:53:14.474Z,58.91
2023-04-06T03:54:14.639Z,58.59
2023-04-06T03:55:14.829Z,58.49
2023-04-06T03:56:15.018Z,58.49
2023-04-06T03:57:15.192Z,58.49
2023-04-06T03:58:15.361Z,57.84
2023-04-06T03:59:15.608Z,58.49
2023-04-06T04:00:16.266Z,58.15
2023-04-06T04:01:15.908Z,58.05
2023-04-06T04:02:16.125Z,57.76
2023-04-06T04:03:16.445Z,58.59
2023-04-06T04:04:18.267Z,58.05
2023-04-06T04:05:16.590Z,58.39
2023-04-06T04:06:16.764Z,57.56
2023-04-06T04:07:16.920Z,57.87
2023-04-06T04:08:17.089Z,57.76
2023-04-06T04:09:17.276Z,57.74
2023-04-06T04:10:17.431Z,57.74
2023-04-06T04:11:19.162Z,58.05
2023-04-06T04:12:17.787Z,57.87
2023-04-06T04:13:18.806Z,58.28
2023-04-06T04:14:18.178Z,57.76
2023-04-06T04:15:19.777Z,57.76
2023-04-06T04:16:19.316Z,57.64
2023-04-06T04:17:19.768Z,57.53
2023-04-06T04:18:18.893Z,58.05
2023-04-06T04:19:19.059Z,57.32
2023-04-06T04:20:19.214Z,58.05
2023-04-06T04:21:19.361Z,57.45
2023-04-06T04:22:19.510Z,57.64
2023-04-06T04:23:19.656Z,57.53
2023-04-06T04:24:19.851Z,57.32
2023-04-06T04:25:19.994Z,57.22
2023-04-06T04:26:20.641Z,57.95
2023-04-06T04:27:20.258Z,57.84
2023-04-06T04:28:21.301Z,57.32
2023-04-06T04:29:21.568Z,57.84
2023-04-06T04:30:20.792Z,57.64
2023-04-06T04:31:21.865Z,57.87
2023-04-06T04:32:21.320Z,58.28
2023-04-06T04:33:22.346Z,57.87
2023-04-06T04:34:22.302Z,57.45
2023-04-06T04:35:21.809Z,57.64
2023-04-06T04:36:21.987Z,57.66
2023-04-06T04:37:22.129Z,57.84
2023-04-06T04:38:23.778Z,57.12
2023-04-06T04:39:22.484Z,57.84
2023-04-06T04:40:22.638Z,57.74
2023-04-06T04:41:22.797Z,57.66
2023-04-06T04:42:23.039Z,57.32
2023-04-06T04:43:23.151Z,57.43
2023-04-06T04:44:23.387Z,57.84
2023-04-06T04:45:23.539Z,57.95
2023-04-06T04:46:23.831Z,57.84
2023-04-06T04:47:23.902Z,58.15
2023-04-06T04:48:24.027Z,58.67
2023-04-06T04:49:24.834Z,57.97
2023-04-06T04:50:24.445Z,57.84
2023-04-06T04:51:24.587Z,57.87
2023-04-06T04:52:25.295Z,57.32
2023-04-06T04:53:25.262Z,57.74
2023-04-06T04:54:26.128Z,57.64
2023-04-06T04:55:25.360Z,57.87
2023-04-06T04:56:25.628Z,58.07
2023-04-06T04:57:26.289Z,58.07
2023-04-06T04:58:25.923Z,57.76
2023-04-06T04:59:26.852Z,57.84
2023-04-06T05:00:26.806Z,57.64
2023-04-06T05:01:26.495Z,57.95
2023-04-06T05:02:26.967Z,58.15
2023-04-06T05:03:28.435Z,57.84
2023-04-06T05:04:26.962Z,58.05
2023-04-06T05:05:28.165Z,57.53
2023-04-06T05:06:28.834Z,57.22
2023-04-06T05:07:27.444Z,57.12
2023-04-06T05:08:27.604Z,57.32
2023-04-06T05:09:27.774Z,57.64
2023-04-06T05:10:27.947Z,57.53
2023-04-06T05:11:29.311Z,57.64
2023-04-06T05:12:28.308Z,57.84
2023-04-06T05:13:28.850Z,57.66
2023-04-06T05:14:28.600Z,57.56
2023-04-06T05:15:28.781Z,57.35
2023-04-06T05:16:28.933Z,57.87
2023-04-06T05:17:29.124Z,57.84
2023-04-06T05:18:29.280Z,58.05
2023-04-06T05:19:29.453Z,58.15
2023-04-06T05:20:29.641Z,57.53
2023-04-06T05:21:29.815Z,57.64
2023-04-06T05:22:30.800Z,58.15
2023-04-06T05:23:30.800Z,57.53
2023-04-06T05:24:30.297Z,57.22
2023-04-06T05:25:31.347Z,57.12
2023-04-06T05:26:31.320Z,57.32
2023-04-06T05:27:30.808Z,58.05
2023-04-06T05:28:32.802Z,57.32
2023-04-06T05:29:31.184Z,57.09
2023-04-06T05:30:32.803Z,56.88
2023-04-06T05:31:31.603Z,56.57
2023-04-06T05:32:31.828Z,56.47
2023-04-06T05:33:33.674Z,56.88
2023-04-06T05:34:32.356Z,56.26
2023-04-06T05:35:32.418Z,56.37
2023-04-06T05:36:32.582Z,56.37
2023-04-06T05:37:33.342Z,56.88
2023-04-06T05:38:33.834Z,56.26
2023-04-06T05:39:33.125Z,55.82
2023-04-06T05:40:33.287Z,55.82
2023-04-06T05:41:33.456Z,55.82
2023-04-06T05:42:33.619Z,55.93
2023-04-06T05:43:33.770Z,55.93
2023-04-06T05:44:33.968Z,55.90
2023-04-06T05:45:34.086Z,55.90
2023-04-06T05:46:34.301Z,55.90
2023-04-06T05:47:34.439Z,55.90
2023-04-06T05:48:34.644Z,55.18
2023-04-06T05:49:34.837Z,55.18
2023-04-06T05:50:35.000Z,55.15
2023-04-06T05:51:35.185Z,55.46
2023-04-06T05:52:35.339Z,55.46
2023-04-06T05:53:35.490Z,55.87
2023-04-06T05:54:35.647Z,55.18
2023-04-06T05:55:36.798Z,55.25
2023-04-06T05:56:36.105Z,55.15
2023-04-06T05:57:36.835Z,55.35
2023-04-06T05:58:36.513Z,55.18
2023-04-06T05:59:36.759Z,54.74
2023-04-06T06:00:37.810Z,55.25
2023-04-06T06:01:37.859Z,55.05
2023-04-06T06:02:37.276Z,55.25
2023-04-06T06:03:39.296Z,55.05
2023-04-06T06:04:38.825Z,55.25
2023-04-06T06:05:37.734Z,54.91
2023-04-06T06:06:37.924Z,55.43
2023-04-06T06:07:39.813Z,54.50
2023-04-06T06:08:38.363Z,53.26
2023-04-06T06:09:39.296Z,54.19
2023-04-06T06:10:38.700Z,54.09
2023-04-06T06:11:38.886Z,53.78
2023-04-06T06:12:39.663Z,53.88
2023-04-06T06:13:39.790Z,53.88
2023-04-06T06:14:39.832Z,54.09
2023-04-06T06:15:41.297Z,54.06
2023-04-06T06:16:39.738Z,53.03
2023-04-06T06:17:40.863Z,53.67
2023-04-06T06:18:40.171Z,53.34
2023-04-06T06:19:41.337Z,53.23
2023-04-06T06:20:40.572Z,53.96
2023-04-06T06:21:41.336Z,53.55
2023-04-06T06:22:40.898Z,53.44
2023-04-06T06:23:42.301Z,53.21
2023-04-06T06:24:41.298Z,53.73
2023-04-06T06:25:41.457Z,53.63
2023-04-06T06:26:42.642Z,53.52
2023-04-06T06:27:41.794Z,53.42
2023-04-06T06:28:41.998Z,53.52
2023-04-06T06:29:42.188Z,52.67
2023-04-06T06:30:43.810Z,51.59
2023-04-06T06:31:42.601Z,50.90
2023-04-06T06:32:43.082Z,49.90
2023-04-06T06:33:43.030Z,48.63
2023-04-06T06:34:43.206Z,47.78
2023-04-06T06:35:44.374Z,47.19
2023-04-06T06:36:45.238Z,47.20
2023-04-06T06:37:44.326Z,47.29
2023-04-06T06:38:43.974Z,46.96
2023-04-06T06:39:44.164Z,47.49
2023-04-06T06:40:44.367Z,47.47
2023-04-06T06:41:45.356Z,47.08
2023-04-06T06:42:46.335Z,48.11
2023-04-06T06:43:44.960Z,47.58
2023-04-06T06:44:46.785Z,46.83
2023-04-06T06:45:45.302Z,47.34
2023-04-06T06:46:45.414Z,46.71
2023-04-06T06:47:46.433Z,46.69
2023-04-06T06:48:45.751Z,46.30
2023-04-06T06:49:46.375Z,46.50
2023-04-06T06:50:46.032Z,46.53
2023-04-06T06:51:46.810Z,46.81
2023-04-06T06:52:46.328Z,46.09
2023-04-06T06:53:47.204Z,46.75
2023-04-06T06:54:46.733Z,48.36
2023-04-06T06:55:47.839Z,49.82
2023-04-06T06:56:47.093Z,49.98
2023-04-06T06:57:47.263Z,50.28
2023-04-06T06:58:48.349Z,51.60
2023-04-06T06:59:48.353Z,49.80
2023-04-06T07:00:47.780Z,48.93
2023-04-06T07:01:47.946Z,47.88
2023-04-06T07:02:48.846Z,47.76
2023-04-06T07:03:48.901Z,47.86
2023-04-06T07:04:48.679Z,46.89
2023-04-06T07:05:48.653Z,47.41
2023-04-06T07:06:48.841Z,45.76
2023-04-06T07:07:49.848Z,45.95
2023-04-06T07:08:49.195Z,46.23
2023-04-06T07:09:49.340Z,46.64
2023-04-06T07:10:50.332Z,46.23
2023-04-06T07:11:49.687Z,46.11
2023-04-06T07:12:49.893Z,45.56
2023-04-06T07:13:50.029Z,44.14
2023-04-06T07:14:50.224Z,44.55
2023-04-06T07:15:50.381Z,44.65
2023-04-06T07:16:51.845Z,44.68
2023-04-06T07:17:50.764Z,46.11
2023-04-06T07:18:52.004Z,46.31
2023-04-06T07:19:51.142Z,44.65
2023-04-06T07:20:51.328Z,44.94
2023-04-06T07:21:51.523Z,45.15
2023-04-06T07:22:51.737Z,45.27
2023-04-06T07:23:51.946Z,44.76
2023-04-06T07:24:52.893Z,44.43
2023-04-06T07:25:52.880Z,44.51
2023-04-06T07:26:52.521Z,44.31
2023-04-06T07:27:52.679Z,44.41
2023-04-06T07:29:13.817Z,44.08
2023-04-06T07:29:54.042Z,43.88
2023-04-06T07:30:53.178Z,44.08
2023-04-06T07:31:53.319Z,44.31
2023-04-06T07:32:53.530Z,44.41
2023-04-06T07:33:53.924Z,44.86
2023-04-06T07:34:54.827Z,46.21
2023-04-06T07:35:55.537Z,45.56
2023-04-06T07:36:54.203Z,44.84
2023-04-06T07:37:56.196Z,45.78
2023-04-06T07:38:54.536Z,46.27
2023-04-06T07:39:55.720Z,44.92
2023-04-06T07:40:54.827Z,45.04
2023-04-06T07:41:54.966Z,45.78
2023-04-06T07:42:56.269Z,46.34
2023-04-06T07:43:55.866Z,47.38
2023-04-06T07:44:57.847Z,47.30
2023-04-06T07:45:55.797Z,47.53
2023-04-06T07:46:57.836Z,48.89
2023-04-06T07:47:56.981Z,49.09
2023-04-06T07:48:56.275Z,48.99
2023-04-06T07:49:57.336Z,48.99
2023-04-06T07:50:58.334Z,49.40
2023-04-06T07:51:57.336Z,49.51
2023-04-06T07:52:57.835Z,49.79
2023-04-06T07:53:57.830Z,48.94
2023-04-06T07:54:57.857Z,48.84
2023-04-06T07:55:58.367Z,47.56
2023-04-06T07:56:58.375Z,48.98
2023-04-06T07:57:58.385Z,47.50
2023-04-06T07:58:57.924Z,47.44
2023-04-06T07:59:58.840Z,48.57
2023-04-06T08:00:58.240Z,47.55
2023-04-06T08:01:59.339Z,47.22
2023-04-06T08:02:58.797Z,46.33
2023-04-06T08:03:59.483Z,46.03
2023-04-06T08:04:59.875Z,46.19
2023-04-06T08:05:59.145Z,45.65
2023-04-06T08:06:59.301Z,45.55
2023-04-06T08:08:00.385Z,44.63
2023-04-06T08:09:00.357Z,44.53
2023-04-06T08:10:00.841Z,44.63
2023-04-06T08:11:02.178Z,44.61
2023-04-06T08:12:01.261Z,44.28
2023-04-06T08:13:00.403Z,44.69
2023-04-06T08:14:00.589Z,44.18
2023-04-06T08:15:00.776Z,44.06
2023-04-06T08:16:01.012Z,44.92
2023-04-06T08:17:01.942Z,44.49
2023-04-06T08:18:01.401Z,44.04
2023-04-06T08:19:02.357Z,43.84
2023-04-06T08:20:01.774Z,43.44
2023-04-06T08:21:01.939Z,44.18
2023-04-06T08:22:02.099Z,44.57
2023-04-06T08:23:02.225Z,44.20
2023-04-06T08:24:02.365Z,43.93
2023-04-06T08:25:02.530Z,42.88
2023-04-06T08:26:02.691Z,41.74
2023-04-06T08:27:02.859Z,42.49
2023-04-06T08:28:03.002Z,41.72
2023-04-06T08:29:04.353Z,42.90
2023-04-06T08:30:03.389Z,43.38
2023-04-06T08:31:03.621Z,42.45
2023-04-06T08:32:03.711Z,42.45
2023-04-06T08:33:03.914Z,43.69
2023-04-06T08:34:04.886Z,44.12
2023-04-06T08:35:04.141Z,43.90
2023-04-06T08:36:04.361Z,43.59
2023-04-06T08:37:05.444Z,44.12
2023-04-06T08:38:04.566Z,43.91
2023-04-06T08:39:04.727Z,45.42
2023-04-06T08:40:05.856Z,43.90
2023-04-06T08:41:07.028Z,43.29
2023-04-06T08:42:05.850Z,43.71
2023-04-06T08:43:05.481Z,44.43
2023-04-06T08:44:06.400Z,43.51
2023-04-06T08:45:05.848Z,43.91
2023-04-06T08:46:07.732Z,45.47
2023-04-06T08:47:07.352Z,44.65
2023-04-06T08:48:06.410Z,44.22
2023-04-06T08:49:07.365Z,42.55
2023-04-06T08:50:08.221Z,42.65
2023-04-06T08:51:08.355Z,43.67
2023-04-06T08:52:07.892Z,43.77
2023-04-06T08:53:07.857Z,43.87
2023-04-06T08:54:07.639Z,44.61
2023-04-06T08:55:07.626Z,45.42
2023-04-06T08:56:08.356Z,44.28
2023-04-06T08:57:08.903Z,44.06
2023-04-06T08:58:08.150Z,42.63
2023-04-06T08:59:08.290Z,44.46
2023-04-06T09:00:09.304Z,43.08
2023-04-06T09:01:10.407Z,44.75
2023-04-06T09:02:08.931Z,44.96
2023-04-06T09:03:09.291Z,43.73
2023-04-06T09:04:11.260Z,44.22
2023-04-06T09:05:09.497Z,45.54
2023-04-06T09:07:40.953Z,45.81
2023-04-06T09:08:40.489Z,44.75
2023-04-06T09:09:40.722Z,43.51
2023-04-06T09:10:42.074Z,42.80
2023-04-06T09:11:43.065Z,42.82
2023-04-06T09:12:42.295Z,44.54
2023-04-06T09:13:43.075Z,45.83
2023-04-06T09:14:42.561Z,43.85
2023-04-06T09:15:42.782Z,42.77
2023-04-06T09:16:43.609Z,42.57
2023-04-06T09:17:43.024Z,42.57
2023-04-06T09:18:44.577Z,41.78
2023-04-06T09:19:43.338Z,41.99
2023-04-06T09:20:44.072Z,41.90
2023-04-06T09:21:44.610Z,42.33
2023-04-06T09:22:43.862Z,41.84
2023-04-06T09:23:44.045Z,44.69
2023-04-06T09:24:44.233Z,42.74
2023-04-06T09:25:44.631Z,43.06
2023-04-06T09:26:45.082Z,44.81
2023-04-06T09:27:45.418Z,43.90
2023-04-06T09:28:44.905Z,44.69
2023-04-06T09:29:45.956Z,45.44
2023-04-06T09:30:46.074Z,43.57
2023-04-06T09:31:47.028Z,43.26
2023-04-06T09:32:47.126Z,43.87
2023-04-06T09:33:45.770Z,42.84
2023-04-06T09:34:46.447Z,41.44
2023-04-06T09:35:47.114Z,42.96
2023-04-06T09:36:46.258Z,43.99
2023-04-06T09:37:46.404Z,41.46
2023-04-06T09:38:46.554Z,42.57
2023-04-06T09:39:46.712Z,41.25
2023-04-06T09:40:59.742Z,41.24
2023-04-06T09:41:48.995Z,40.93
2023-04-06T09:42:48.126Z,40.20
2023-04-06T09:43:47.399Z,41.13
2023-04-06T09:44:48.139Z,41.21
2023-04-06T09:45:47.776Z,41.72
2023-04-06T09:46:59.763Z,41.30
2023-04-06T09:47:53.003Z,41.19
2023-04-06T09:48:48.390Z,40.59
2023-04-06T09:49:48.551Z,40.56
2023-04-06T09:50:48.678Z,39.86
2023-04-06T09:51:49.590Z,39.64
2023-04-06T09:52:48.980Z,40.33
2023-04-06T09:53:49.109Z,39.01
2023-04-06T09:54:49.644Z,38.50
2023-04-06T09:55:49.397Z,37.32
2023-04-06T09:56:49.527Z,40.47
2023-04-06T09:57:50.467Z,38.84
2023-04-06T09:58:49.991Z,39.55
2023-04-06T09:59:50.198Z,38.95
2023-04-06T10:00:52.980Z,39.11
2023-04-06T10:01:50.510Z,37.42
2023-04-06T10:02:50.725Z,37.26
2023-04-06T10:03:51.044Z,37.70
2023-04-06T10:04:51.114Z,38.48
2023-04-06T10:05:51.256Z,40.53
2023-04-06T10:06:51.510Z,41.57
2023-04-06T10:08:00.178Z,42.18
2023-04-06T10:08:54.632Z,41.16
2023-04-06T10:09:53.090Z,40.96
2023-04-06T10:10:52.222Z,41.57
2023-04-06T10:11:52.368Z,41.78
2023-04-06T10:12:54.591Z,41.55
2023-04-06T10:13:53.663Z,43.16
2023-04-06T10:14:52.933Z,43.75
2023-04-06T10:15:53.224Z,42.63
2023-04-06T10:16:53.313Z,42.31
2023-04-06T10:17:54.033Z,42.41
2023-04-06T10:18:53.718Z,42.61
2023-04-06T10:19:54.631Z,42.29
2023-04-06T10:20:54.083Z,41.49
2023-04-06T10:21:55.238Z,42.71
2023-04-06T10:22:54.647Z,44.14
2023-04-06T10:23:54.531Z,43.30
2023-04-06T10:24:54.701Z,41.60
2023-04-06T10:25:54.881Z,42.82
2023-04-06T10:26:55.056Z,42.71
2023-04-06T10:27:55.651Z,42.74
2023-04-06T10:28:55.433Z,44.06
2023-04-06T10:29:57.632Z,42.74
2023-04-06T10:30:55.803Z,44.06
2023-04-06T10:31:56.696Z,45.56
2023-04-06T10:32:56.234Z,43.63
2023-04-06T10:33:56.318Z,42.83
2023-04-06T10:34:56.497Z,42.86
2023-04-06T10:35:56.685Z,43.71
2023-04-06T10:36:56.784Z,44.71
2023-04-06T10:37:56.941Z,44.31
2023-04-06T10:38:58.115Z,45.73
2023-04-06T10:39:57.241Z,44.08
2023-04-06T10:40:59.118Z,44.08
2023-04-06T10:41:57.626Z,44.08
2023-04-06T10:42:57.860Z,45.61
2023-04-06T10:43:57.975Z,44.57
2023-04-06T10:44:58.174Z,42.86
2023-04-06T10:45:58.394Z,44.49
2023-04-06T10:46:58.483Z,43.87
2023-04-06T10:47:58.690Z,43.65
2023-04-06T10:48:58.824Z,43.35
2023-04-06T10:49:59.073Z,43.53
2023-04-06T10:50:59.270Z,42.83
2023-04-06T10:52:00.123Z,42.43
2023-04-06T10:52:59.681Z,42.96
2023-04-06T10:53:59.864Z,42.45
2023-04-06T10:55:00.680Z,43.49
2023-04-06T10:56:00.665Z,43.77
2023-04-06T10:57:00.499Z,44.28
2023-04-06T10:58:01.622Z,43.59
2023-04-06T10:59:00.918Z,43.77
2023-04-06T11:00:01.090Z,44.10
2023-04-06T11:01:02.140Z,43.79
2023-04-06T11:02:01.677Z,44.08
2023-04-06T11:03:02.195Z,45.28
2023-04-06T11:04:02.673Z,43.96
2023-04-06T11:05:02.674Z,43.63
2023-04-06T11:06:02.105Z,43.32
2023-04-06T11:07:03.618Z,43.53
2023-04-06T11:08:02.415Z,42.94
2023-04-06T11:09:02.621Z,44.34
2023-04-06T11:11:03.959Z,43.59
2023-04-06T11:12:03.649Z,43.51
2023-04-06T11:13:04.122Z,43.69
2023-04-06T11:14:03.534Z,43.81
2023-04-06T11:15:03.736Z,43.69
2023-04-06T11:16:03.948Z,43.30
2023-04-06T11:17:04.664Z,43.91
2023-04-06T11:18:04.406Z,43.30
2023-04-06T11:19:05.631Z,43.84
2023-04-06T11:20:04.712Z,42.94
2023-04-06T11:21:04.778Z,42.94
2023-04-06T11:22:05.628Z,43.65
2023-04-06T11:23:06.118Z,43.87
2023-04-06T11:24:06.625Z,44.57
2023-04-06T11:25:07.129Z,43.65
2023-04-06T11:26:05.645Z,44.65
2023-04-06T11:27:06.630Z,43.63
2023-04-06T11:28:06.032Z,44.08
2023-04-06T11:29:06.265Z,44.40
2023-04-06T11:30:06.448Z,45.83
2023-04-06T11:31:06.690Z,45.50
2023-04-06T11:32:06.771Z,45.99
2023-04-06T11:33:07.029Z,45.99
2023-04-06T11:34:07.228Z,45.81
2023-04-06T11:35:08.133Z,44.61
2023-04-06T11:36:08.204Z,46.03
2023-04-06T11:37:07.762Z,46.83
2023-04-06T11:38:07.930Z,45.99
2023-04-06T11:39:09.150Z,45.68
2023-04-06T11:40:08.683Z,45.76
2023-04-06T11:41:08.481Z,45.97
2023-04-06T11:43:10.885Z,45.84
2023-04-06T11:44:09.588Z,45.42
2023-04-06T11:45:10.299Z,43.99
2023-04-06T11:46:09.479Z,45.20
2023-04-06T11:47:10.635Z,45.20
2023-04-06T11:49:10.677Z,44.30
2023-04-06T11:50:11.251Z,44.63
2023-04-06T11:51:10.409Z,45.32
2023-04-06T11:52:10.591Z,44.32
2023-04-06T11:53:10.780Z,44.83
2023-04-06T11:54:10.970Z,45.84
2023-04-06T11:55:11.169Z,45.62
2023-04-06T11:56:11.345Z,43.69
2023-04-06T11:57:11.544Z,45.26
2023-04-06T11:58:12.671Z,44.46
2023-04-06T11:59:12.003Z,45.59
2023-04-06T12:00:12.119Z,45.71
2023-04-06T12:01:12.367Z,46.22
2023-04-06T12:02:12.551Z,45.28
2023-04-06T12:03:12.829Z,46.52
2023-04-06T12:04:13.006Z,45.40
2023-04-06T12:05:13.129Z,46.55
2023-04-06T12:06:13.357Z,46.11
2023-04-06T12:07:13.549Z,46.40
2023-04-06T12:08:15.140Z,47.09
2023-04-06T12:09:14.699Z,45.44
2023-04-06T12:10:14.126Z,45.50
2023-04-06T12:11:15.139Z,47.02
2023-04-06T12:12:14.550Z,46.29
2023-04-06T12:13:14.693Z,45.58
2023-04-06T12:14:14.847Z,45.78
2023-04-06T12:15:15.026Z,44.18
2023-04-06T12:16:15.277Z,44.38
2023-04-06T12:17:15.324Z,46.11
2023-04-06T12:18:15.501Z,45.60
2023-04-06T12:19:16.203Z,46.03
2023-04-06T12:20:25.738Z,45.52
2023-04-06T12:21:18.651Z,47.19
2023-04-06T12:22:16.122Z,46.48
2023-04-06T12:23:16.257Z,48.59
2023-04-06T12:24:16.485Z,47.06
2023-04-06T12:25:16.707Z,45.64
2023-04-06T12:26:17.657Z,46.07
2023-04-06T12:27:17.060Z,46.78
2023-04-06T12:28:17.298Z,47.17
2023-04-06T12:29:17.462Z,46.74
2023-04-06T12:30:18.648Z,45.95
2023-04-06T12:31:17.874Z,47.60
2023-04-06T12:32:18.001Z,46.50
2023-04-06T12:33:18.252Z,47.13
2023-04-06T12:34:18.519Z,48.13
2023-04-06T12:35:19.579Z,46.91
2023-04-06T12:36:18.750Z,47.31
2023-04-06T12:37:18.954Z,47.01
2023-04-06T12:38:19.126Z,46.48
2023-04-06T12:39:20.497Z,46.81
2023-04-06T12:40:19.558Z,46.09
2023-04-06T12:41:19.785Z,46.78
2023-04-06T12:42:19.969Z,46.89
2023-04-06T12:43:20.686Z,47.19
2023-04-06T12:44:22.856Z,46.70
2023-04-06T12:45:20.509Z,47.50
2023-04-06T12:46:21.762Z,46.09
2023-04-06T12:47:21.703Z,47.21
2023-04-06T12:48:21.721Z,47.92
2023-04-06T12:49:21.116Z,47.29
2023-04-06T12:50:22.021Z,47.60
2023-04-06T12:51:21.541Z,47.17
2023-04-06T12:52:23.156Z,46.36
2023-04-06T12:53:23.649Z,47.98
2023-04-06T12:54:22.174Z,47.45
2023-04-06T12:55:22.324Z,47.33
2023-04-06T12:56:22.480Z,47.33
2023-04-06T12:57:22.666Z,46.90
2023-04-06T12:58:22.819Z,46.80
2023-04-06T12:59:23.050Z,46.70